Sayner, Wisconsin
Current Conditions -  °F | °C
As of 4:55 PM on Thursday 23 Oct 2014 (Local Time) from KARV Reporting Station
Haze Haze  
Wind Chill: 43°   Ceiling: 200
Heat Index: 46°   Visibility: 2.5mi
Dew Point: 44°   Wind: 5mph
Humidity: 95%   Direction: 190°S
Pressure: 29.99"   Gusts: NA
Location:  45.99°N, 89.53°W
Report Text: KARV 232155Z AUTO 19004KT 2 1/2SM BR OVC002 08/07 A2999 RMK AO2 T00750067
Loading
Personal Weather Stations






























Interactive Weather Map
Tropical Storm Tracking
New forecast layout! Learn more

10-Day Weather Forecast

Advertisements
Track Severe Weather on mobile